createdAt,value
2014-07-10T20:51:12.363Z,26.8
2014-07-10T20:51:30.613Z,27
2014-07-10T20:51:48.207Z,27.1
2014-07-10T20:52:05.818Z,27.3
2014-07-10T20:52:24.052Z,27.5
2014-07-10T20:53:17.539Z,28.1
2014-07-10T20:53:33.945Z,28.1
2014-07-10T20:53:50.914Z,28.2
2014-07-10T20:54:08.524Z,28.2
2014-07-10T20:54:26.758Z,28.3
2014-07-10T20:54:43.727Z,28.3
2014-07-10T20:55:01.962Z,28.3
2014-07-10T20:55:20.199Z,28.3
2014-07-10T20:55:37.183Z,28.4
2014-07-10T20:55:54.777Z,28.4
2014-07-10T20:56:12.387Z,28.3
2014-07-10T20:56:29.997Z,28.3
2014-07-10T20:56:48.231Z,28.4
2014-07-10T20:57:06.466Z,28.4
2014-07-10T20:57:24.702Z,28.4
2014-07-10T20:57:42.936Z,28.4
2014-07-10T20:57:59.296Z,28.4
2014-07-10T20:58:16.266Z,28.4
2014-07-10T20:58:33.860Z,28.3
2014-07-10T20:58:51.470Z,28.3
2014-07-10T20:59:08.454Z,28.3
2014-07-10T20:59:26.690Z,28.3
2014-07-10T20:59:44.909Z,28.3
2014-07-10T21:00:02.518Z,28.3
2014-07-10T21:00:20.756Z,28.3
2014-07-10T21:00:38.365Z,28.3
2014-07-10T21:00:55.959Z,28.3
2014-07-10T21:01:14.193Z,28.3
2014-07-10T21:01:32.429Z,28.3
2014-07-10T21:01:50.663Z,28.3
2014-07-10T21:02:08.897Z,28.3
2014-07-10T21:02:25.884Z,28.3
2014-07-10T21:02:43.478Z,28.3
2014-07-10T21:03:01.087Z,28.3
2014-07-10T21:03:18.087Z,28.3
2014-07-10T21:03:35.043Z,28.3
2014-07-10T21:03:52.012Z,28.3
2014-07-10T21:04:08.996Z,28.3
2014-07-10T21:04:26.590Z,28.2
2014-07-10T21:04:44.826Z,28.2
2014-07-10T21:05:03.201Z,28.2
2014-07-10T21:05:21.436Z,28.2
2014-07-10T21:05:39.670Z,28.2
2014-07-10T21:05:56.641Z,28.2
2014-07-10T21:06:14.875Z,28.2
2014-07-10T21:06:32.610Z,28.2
2014-07-10T21:06:50.221Z,28.2
2014-07-10T21:07:08.440Z,28.2
2014-07-10T21:07:26.674Z,28.2
2014-07-10T21:07:44.283Z,28.2
2014-07-10T21:08:02.520Z,28.2
2014-07-10T21:08:20.754Z,28.2
2014-07-10T21:08:38.989Z,28.2
2014-07-10T21:08:57.303Z,28.2
2014-07-10T21:09:15.506Z,28.2
2014-07-10T21:09:33.756Z,28.2
2014-07-10T21:09:51.991Z,28.2
2014-07-10T21:10:10.368Z,28.2
2014-07-10T21:10:27.977Z,28.2
2014-07-10T21:10:45.571Z,28.2
2014-07-10T21:11:03.808Z,28.2
2014-07-10T21:11:22.042Z,28.1
2014-07-10T21:11:40.402Z,28.2
2014-07-10T21:11:58.636Z,28.1
2014-07-10T21:12:16.247Z,28.2
2014-07-10T21:12:34.481Z,28.1
2014-07-10T21:12:52.325Z,28.2
2014-07-10T21:13:09.312Z,28.2
2014-07-10T21:13:26.906Z,28.2
2014-07-10T21:13:44.515Z,28.2
2014-07-10T21:14:02.125Z,28.1
2014-07-10T21:14:20.360Z,28.2
2014-07-10T21:14:37.344Z,28.2
2014-07-10T21:14:55.172Z,28.2
2014-07-10T21:15:13.409Z,28.2
2014-07-10T21:15:31.065Z,28.2
2014-07-10T21:15:48.065Z,28.2
2014-07-10T21:16:06.299Z,28.2
2014-07-10T21:16:24.536Z,28.2
2014-07-10T21:16:42.770Z,28.2
2014-07-10T21:16:59.801Z,28.2
2014-07-10T21:17:18.178Z,28.2
2014-07-10T21:17:35.788Z,28.2
2014-07-10T21:17:52.132Z,28.2
2014-07-10T21:18:09.741Z,28.2
2014-07-10T21:18:26.727Z,28.2
2014-07-10T21:18:44.352Z,28.2
2014-07-10T21:19:02.587Z,28.2
2014-07-10T21:19:20.821Z,28.2
2014-07-10T21:19:39.123Z,28.2
2014-07-10T21:19:56.091Z,28.2
2014-07-10T21:20:13.701Z,28.2
2014-07-10T21:20:30.713Z,28.2
2014-07-10T21:20:48.947Z,28.2
2014-07-10T21:21:05.931Z,28.2
2014-07-10T21:21:24.166Z,28.2
2014-07-10T21:21:41.817Z,28.2
2014-07-10T21:22:00.051Z,28.2
2014-07-10T21:22:18.270Z,28.2
2014-07-10T21:22:36.550Z,28.2
2014-07-10T21:22:54.784Z,28.2
2014-07-10T21:23:12.393Z,28.1
2014-07-10T21:23:29.393Z,28.1
2014-07-10T21:23:47.045Z,28.1
2014-07-10T21:24:05.310Z,28.1
2014-07-10T21:24:23.045Z,28.1
2014-07-10T21:24:41.297Z,28.1
2014-07-10T21:24:58.906Z,28.1
2014-07-10T21:25:17.125Z,28.1
2014-07-10T21:25:35.375Z,28.1
2014-07-10T21:25:52.360Z,28.1
2014-07-10T21:26:09.969Z,28.1
2014-07-10T21:26:27.641Z,28.1
2014-07-10T21:26:44.610Z,28.1
2014-07-10T21:27:02.845Z,28.1
2014-07-10T21:27:19.813Z,28.1
2014-07-10T21:27:37.438Z,28.2
2014-07-10T21:27:55.690Z,28.1
2014-07-10T21:28:13.924Z,28.1
2014-07-10T21:28:32.159Z,28.2
2014-07-10T21:28:49.783Z,28.1
2014-07-10T21:29:08.002Z,28.1
2014-07-10T21:29:25.611Z,28.1
2014-07-10T21:29:43.845Z,28.1
2014-07-10T21:30:02.087Z,28.1
2014-07-10T21:30:19.102Z,28.1
2014-07-10T21:30:36.665Z,28.1
2014-07-10T21:30:54.953Z,28.1
2014-07-10T21:31:11.922Z,28.1
2014-07-10T21:31:29.531Z,28.1
2014-07-10T21:31:45.891Z,28.1
2014-07-10T21:32:04.133Z,28.1
2014-07-10T21:32:21.742Z,28.1
2014-07-10T21:32:39.977Z,28.1
2014-07-10T21:32:57.571Z,28.1
2014-07-10T21:33:15.188Z,28.1
2014-07-10T21:33:32.797Z,28.1
2014-07-10T21:33:50.407Z,28.1
2014-07-10T21:34:08.005Z,28.1
2014-07-10T21:34:26.240Z,28.1
2014-07-10T21:34:44.474Z,28.1
2014-07-10T21:35:01.459Z,28.1
2014-07-10T21:35:19.697Z,28.1
2014-07-10T21:35:37.291Z,28.1
2014-07-10T21:35:53.650Z,28.1
2014-07-10T21:36:11.888Z,28.1
2014-07-10T21:36:28.857Z,28.1
2014-07-10T21:36:45.857Z,28.2
2014-07-10T21:37:04.107Z,28.2
2014-07-10T21:37:21.706Z,28.2
2014-07-10T21:37:38.690Z,28.2
2014-07-10T21:37:56.940Z,28.2
2014-07-10T21:38:13.925Z,28.2
2014-07-10T21:38:32.163Z,28.2
2014-07-10T21:38:49.772Z,28.2
2014-07-10T21:39:08.007Z,28.2
2014-07-10T21:39:25.603Z,28.2
2014-07-10T21:39:43.853Z,28.2
2014-07-10T21:40:02.087Z,28.2
2014-07-10T21:40:19.696Z,28.2
2014-07-10T21:40:37.917Z,28.2
2014-07-10T21:40:56.167Z,28.2
2014-07-10T21:41:13.151Z,28.2
2014-07-10T21:41:29.561Z,28.2
2014-07-10T21:41:47.764Z,28.2
2014-07-10T21:42:05.389Z,28.2
2014-07-10T21:42:22.983Z,28.2
2014-07-10T21:42:40.595Z,28.2
2014-07-10T21:42:58.204Z,28.1
2014-07-10T21:43:16.548Z,28.2
2014-07-10T21:43:34.113Z,28.2
2014-07-10T21:43:51.097Z,28.2
2014-07-10T21:44:08.706Z,28.2
2014-07-10T21:44:26.941Z,28.1
2014-07-10T21:44:44.536Z,28.2
2014-07-10T21:45:02.146Z,28.2
2014-07-10T21:45:20.380Z,28.2
2014-07-10T21:45:37.367Z,28.2
2014-07-10T21:45:55.601Z,28.1
2014-07-10T21:46:13.382Z,28.2
2014-07-10T21:46:30.382Z,28.1
2014-07-10T21:46:48.760Z,28.2
2014-07-10T21:47:06.995Z,28.1
2014-07-10T21:47:25.213Z,28.1
2014-07-10T21:47:43.450Z,28.1
2014-07-10T21:47:59.184Z,28.1
2014-07-10T21:48:16.793Z,28.1
2014-07-10T21:48:35.028Z,28.1
2014-07-10T21:48:53.265Z,28.1
2014-07-10T21:49:11.515Z,28.1
2014-07-10T21:49:29.750Z,28.2
2014-07-10T21:49:47.984Z,28.2
2014-07-10T21:50:06.267Z,28.2
2014-07-10T21:50:24.486Z,28.1
2014-07-10T21:50:41.470Z,28.1
2014-07-10T21:50:59.082Z,28.2
2014-07-10T21:51:15.425Z,28.1
2014-07-10T21:51:32.425Z,28.1
2014-07-10T21:51:49.441Z,28.1
2014-07-10T21:52:06.396Z,28.2
2014-07-10T21:52:24.631Z,28.1
2014-07-10T21:52:42.240Z,28.1
2014-07-10T21:52:58.724Z,28.1
2014-07-10T21:53:16.351Z,28.1
2014-07-10T21:53:34.101Z,28.1
2014-07-10T21:53:51.742Z,28.1
2014-07-10T21:54:09.976Z,28.1
2014-07-10T21:54:28.213Z,28.1
2014-07-10T21:54:45.822Z,28.1
2014-07-10T21:55:03.463Z,28.1
2014-07-10T21:55:21.683Z,28.1
2014-07-10T21:55:38.668Z,28.1
2014-07-10T21:55:56.277Z,28.1
2014-07-10T21:56:13.871Z,28.1
2014-07-10T21:56:32.107Z,28.1
2014-07-10T21:56:49.092Z,28
2014-07-10T21:57:07.310Z,28
2014-07-10T21:57:25.548Z,28
2014-07-10T21:57:43.220Z,28
2014-07-10T21:58:00.970Z,28
2014-07-10T21:58:19.157Z,28
2014-07-10T21:58:36.768Z,28
2014-07-10T21:58:53.752Z,28
2014-07-10T21:59:11.971Z,28
2014-07-10T21:59:29.583Z,28
